createdAt,value
2018-05-23T00:00:56.921Z,6.67
2018-05-23T00:03:27.192Z,6.53
2018-05-23T00:05:56.809Z,11.57
2018-05-23T00:08:26.248Z,8.03
2018-05-23T00:10:55.493Z,7.33
2018-05-23T00:13:25.052Z,7.90
2018-05-23T00:15:54.492Z,6.53
2018-05-23T00:18:23.949Z,6.33
2018-05-23T00:20:53.876Z,6.77
2018-05-23T00:23:23.408Z,8.47
2018-05-23T00:25:53.160Z,13.00
2018-05-23T00:28:23.201Z,6.87
2018-05-23T00:30:53.582Z,11.70
2018-05-23T00:33:24.501Z,12.80
2018-05-23T00:35:54.200Z,10.57
2018-05-23T00:38:23.705Z,7.77
2018-05-23T00:40:52.957Z,11.17
2018-05-23T00:43:22.436Z,9.20
2018-05-23T00:45:51.949Z,12.40
2018-05-23T00:48:22.185Z,8.90
2018-05-23T00:50:51.762Z,14.80
2018-05-23T00:53:21.377Z,9.97
2018-05-23T00:55:52.028Z,8.77
2018-05-23T00:58:22.768Z,11.03
2018-05-23T01:00:52.887Z,7.57
2018-05-23T01:03:22.929Z,11.83
2018-05-23T01:05:53.321Z,7.50
2018-05-23T01:08:22.567Z,12.03
2018-05-23T01:10:52.237Z,8.70
2018-05-23T01:13:21.844Z,8.40
2018-05-23T01:15:51.126Z,7.93
2018-05-23T01:18:20.762Z,5.63
2018-05-23T01:20:50.986Z,7.00
2018-05-23T01:23:20.527Z,7.50
2018-05-23T01:25:49.804Z,8.27
2018-05-23T01:28:20.401Z,6.23
2018-05-23T01:30:51.294Z,7.23
2018-05-23T01:33:20.884Z,8.83
2018-05-23T01:35:51.644Z,9.40
2018-05-23T01:38:21.174Z,6.83
2018-05-23T01:40:50.852Z,7.63
2018-05-23T01:43:20.375Z,5.87
2018-05-23T01:45:49.964Z,6.17
2018-05-23T01:48:20.393Z,6.37
2018-05-23T01:50:49.665Z,3.30
2018-05-23T01:53:19.169Z,7.67
2018-05-23T01:55:48.752Z,4.73
2018-05-23T01:58:18.354Z,4.77
2018-05-23T02:00:47.969Z,5.57
2018-05-23T02:03:17.417Z,5.30
2018-05-23T02:05:47.154Z,7.00
2018-05-23T02:08:17.616Z,5.10
2018-05-23T02:10:48.149Z,3.93
2018-05-23T02:13:17.772Z,5.00
2018-05-23T02:15:47.348Z,9.33
2018-05-23T02:18:17.060Z,6.07
2018-05-23T02:20:46.581Z,3.33
2018-05-23T02:23:18.536Z,4.60
2018-05-23T02:25:49.588Z,6.13
2018-05-23T02:28:19.068Z,4.17
2018-05-23T02:30:49.056Z,4.33
2018-05-23T02:33:18.720Z,6.60
2018-05-23T02:35:48.572Z,7.23
2018-05-23T02:38:18.888Z,3.20
2018-05-23T02:40:48.628Z,5.00
2018-05-23T02:43:18.251Z,4.07
2018-05-23T02:45:47.823Z,8.63
2018-05-23T02:48:17.444Z,9.40
2018-05-23T02:50:47.156Z,4.90
2018-05-23T02:53:16.670Z,7.37
2018-05-23T02:55:46.862Z,4.13
2018-05-23T02:58:16.404Z,7.63
2018-05-23T03:00:49.461Z,6.27
2018-05-23T03:03:18.737Z,6.03
2018-05-23T03:05:48.300Z,5.23
2018-05-23T03:08:17.524Z,4.10
2018-05-23T03:10:47.089Z,5.10
2018-05-23T03:13:16.804Z,10.07
2018-05-23T03:15:46.463Z,5.43
2018-05-23T03:18:16.334Z,4.70
2018-05-23T03:20:45.874Z,5.90
2018-05-23T03:23:16.328Z,5.90
2018-05-23T03:25:45.888Z,4.70
2018-05-23T03:28:16.016Z,5.83
2018-05-23T03:30:46.360Z,4.40
2018-05-23T03:33:16.377Z,3.70
2018-05-23T03:35:45.900Z,4.27
2018-05-23T03:38:15.500Z,4.43
2018-05-23T03:40:44.716Z,11.33
2018-05-23T03:43:14.848Z,4.33
2018-05-23T03:45:44.924Z,6.00
2018-05-23T03:48:14.461Z,4.63
2018-05-23T03:50:44.067Z,5.00
2018-05-23T03:53:13.552Z,4.50
2018-05-23T03:55:43.164Z,4.50
2018-05-23T03:58:13.277Z,3.17
2018-05-23T04:00:48.529Z,7.60
2018-05-23T04:03:23.993Z,6.17
2018-05-23T04:06:11.289Z,4.80
2018-05-23T04:08:40.796Z,3.90
2018-05-23T04:11:10.371Z,3.87
2018-05-23T04:13:39.770Z,3.17
2018-05-23T04:16:09.297Z,5.10
2018-05-23T04:18:38.788Z,6.97
2018-05-23T04:21:08.913Z,3.50
2018-05-23T04:23:39.102Z,3.37
2018-05-23T04:26:08.588Z,4.73
2018-05-23T04:28:38.192Z,3.57
2018-05-23T04:31:07.940Z,4.00
2018-05-23T04:33:37.152Z,3.77
2018-05-23T04:36:06.800Z,2.90
2018-05-23T04:38:36.420Z,2.00
2018-05-23T04:41:05.948Z,4.90
2018-05-23T04:43:35.456Z,6.00
2018-05-23T04:46:04.964Z,5.17
2018-05-23T04:48:34.448Z,6.00
2018-05-23T04:51:04.117Z,5.10
2018-05-23T04:53:33.619Z,5.00
2018-05-23T04:56:03.544Z,4.23
2018-05-23T04:58:33.129Z,8.20
2018-05-23T05:01:02.644Z,2.97
2018-05-23T05:03:33.088Z,3.40
2018-05-23T05:06:03.189Z,5.47
2018-05-23T05:08:32.670Z,8.57
2018-05-23T05:11:02.034Z,8.33
2018-05-23T05:13:31.753Z,4.73
2018-05-23T05:16:02.261Z,7.47
2018-05-23T05:18:31.467Z,8.43
2018-05-23T05:21:01.028Z,8.80
2018-05-23T05:23:30.576Z,11.93
2018-05-23T05:25:59.916Z,7.33
2018-05-23T05:28:29.996Z,3.23
2018-05-23T05:30:59.541Z,14.27
2018-05-23T05:33:30.868Z,8.87
2018-05-23T05:36:01.005Z,6.43
2018-05-23T05:38:30.497Z,4.93
2018-05-23T05:41:00.337Z,11.00
2018-05-23T05:43:31.089Z,4.20
2018-05-23T05:46:00.588Z,6.17
2018-05-23T05:48:31.297Z,7.97
2018-05-23T05:51:01.436Z,6.97
2018-05-23T05:53:31.057Z,6.17
2018-05-23T05:56:01.997Z,9.80
2018-05-23T05:58:31.952Z,6.33
2018-05-23T06:01:01.600Z,5.53
2018-05-23T06:03:30.804Z,5.30
2018-05-23T06:06:00.780Z,7.57
2018-05-23T06:08:30.762Z,5.47
2018-05-23T06:11:00.249Z,6.70
2018-05-23T06:13:30.018Z,6.20
2018-05-23T06:15:59.599Z,7.60
2018-05-23T06:18:29.107Z,9.27
2018-05-23T06:20:59.740Z,7.57
2018-05-23T06:23:29.431Z,4.57
2018-05-23T06:25:58.632Z,9.43
2018-05-23T06:28:28.167Z,7.07
2018-05-23T06:30:58.391Z,9.73
2018-05-23T06:33:27.882Z,10.10
2018-05-23T06:35:57.135Z,10.70
2018-05-23T06:38:26.721Z,7.17
2018-05-23T06:40:56.431Z,9.37
2018-05-23T06:43:26.037Z,6.33
2018-05-23T06:45:57.008Z,7.90
2018-05-23T06:48:26.567Z,7.37
2018-05-23T06:50:56.153Z,9.83
2018-05-23T06:53:26.688Z,7.87
2018-05-23T06:55:56.145Z,5.73
2018-05-23T06:58:25.764Z,7.73
2018-05-23T07:00:55.348Z,10.97
2018-05-23T07:03:24.877Z,7.43
2018-05-23T07:05:54.403Z,8.03
2018-05-23T07:08:23.555Z,8.93
2018-05-23T07:10:53.074Z,6.17
2018-05-23T07:13:22.604Z,11.23
2018-05-23T07:15:52.808Z,9.00
2018-05-23T07:18:22.400Z,6.30
2018-05-23T07:20:52.449Z,9.73
2018-05-23T07:23:21.700Z,12.17
2018-05-23T07:25:52.042Z,8.30
2018-05-23T07:28:21.502Z,8.50
2018-05-23T07:30:51.651Z,10.63
2018-05-23T07:33:21.174Z,4.40
2018-05-23T07:35:50.381Z,9.77
2018-05-23T07:38:19.993Z,7.60
2018-05-23T07:40:50.172Z,17.03
2018-05-23T07:43:19.685Z,25.33
2018-05-23T07:45:49.225Z,8.90
2018-05-23T07:48:18.560Z,6.07
2018-05-23T07:50:48.106Z,6.07
2018-05-23T07:53:18.658Z,13.97
2018-05-23T07:55:48.252Z,10.40
2018-05-23T07:58:17.862Z,5.60
2018-05-23T08:00:48.394Z,7.83
2018-05-23T08:03:17.932Z,4.93
2018-05-23T08:05:47.220Z,7.60
2018-05-23T08:08:16.698Z,9.03
2018-05-23T08:10:46.227Z,7.27
2018-05-23T08:13:16.428Z,7.27
2018-05-23T08:15:47.215Z,9.50
2018-05-23T08:18:16.913Z,6.23
2018-05-23T08:20:46.803Z,9.13
2018-05-23T08:23:16.561Z,6.77
2018-05-23T08:25:46.253Z,4.50
2018-05-23T08:28:15.757Z,12.43
2018-05-23T08:30:45.888Z,7.20
2018-05-23T08:33:15.092Z,10.97
2018-05-23T08:35:44.694Z,5.73
2018-05-23T08:38:15.022Z,8.03
2018-05-23T08:40:44.326Z,7.40
2018-05-23T08:43:13.833Z,7.63
2018-05-23T08:45:44.061Z,13.57
2018-05-23T08:48:13.584Z,6.33
2018-05-23T08:50:42.836Z,10.87
2018-05-23T08:53:12.296Z,6.67
2018-05-23T08:55:41.828Z,6.57
2018-05-23T08:58:11.401Z,8.27
2018-05-23T09:00:40.891Z,4.53
2018-05-23T09:03:10.398Z,7.23
2018-05-23T09:05:40.016Z,11.30
2018-05-23T09:08:09.540Z,8.00
2018-05-23T09:10:39.028Z,6.80
2018-05-23T09:13:09.012Z,7.53
2018-05-23T09:15:38.500Z,10.33
2018-05-23T09:18:08.168Z,7.87
2018-05-23T09:20:37.728Z,6.57
2018-05-23T09:23:07.387Z,5.20
2018-05-23T09:25:37.632Z,12.37
2018-05-23T09:28:07.228Z,8.27
2018-05-23T09:30:36.844Z,6.67
2018-05-23T09:33:06.287Z,7.57
2018-05-23T09:35:35.500Z,6.30
2018-05-23T09:38:05.060Z,10.87
2018-05-23T09:40:35.352Z,12.20
2018-05-23T09:43:04.564Z,9.17
2018-05-23T09:45:34.097Z,6.87
2018-05-23T09:48:03.616Z,10.60
2018-05-23T09:50:33.652Z,6.93
2018-05-23T09:53:02.944Z,9.57
2018-05-23T09:55:32.440Z,6.27
2018-05-23T09:58:01.953Z,5.40
2018-05-23T10:00:31.485Z,7.33
2018-05-23T10:03:00.724Z,6.23
2018-05-23T10:05:30.705Z,5.97
2018-05-23T10:08:00.296Z,10.40
2018-05-23T10:10:29.960Z,9.43
2018-05-23T10:12:59.443Z,7.60
2018-05-23T10:15:29.812Z,8.53
2018-05-23T10:17:59.352Z,9.83
2018-05-23T10:20:28.556Z,7.60
2018-05-23T10:22:57.796Z,6.33
2018-05-23T10:25:27.552Z,4.03
2018-05-23T10:27:57.188Z,5.53
2018-05-23T10:30:26.802Z,6.00
2018-05-23T10:32:56.108Z,6.37
2018-05-23T10:35:25.547Z,4.18
2018-05-23T10:37:55.116Z,6.07
2018-05-23T10:40:24.757Z,6.53
2018-05-23T10:42:54.269Z,8.10
2018-05-23T10:45:23.874Z,6.30
2018-05-23T10:47:53.177Z,4.32
2018-05-23T10:50:22.634Z,6.18
2018-05-23T10:52:52.097Z,8.20
2018-05-23T10:55:21.299Z,4.10
2018-05-23T10:57:50.788Z,4.80
2018-05-23T11:00:19.992Z,5.40
2018-05-23T11:02:49.743Z,7.03
2018-05-23T11:05:18.932Z,6.37
2018-05-23T11:07:48.144Z,6.93
2018-05-23T11:10:17.818Z,4.60
2018-05-23T11:12:47.811Z,6.45
2018-05-23T11:15:17.438Z,4.70
2018-05-23T11:17:47.020Z,5.87
2018-05-23T11:20:16.709Z,6.87
2018-05-23T11:22:46.285Z,5.82
2018-05-23T11:25:16.100Z,5.03
2018-05-23T11:27:45.304Z,7.03
2018-05-23T11:30:14.820Z,4.70
2018-05-23T11:32:44.792Z,7.15
2018-05-23T11:35:14.365Z,7.80
2018-05-23T11:37:44.262Z,4.78
2018-05-23T11:40:13.790Z,5.53
2018-05-23T11:42:43.709Z,6.53
2018-05-23T11:45:12.920Z,3.78
2018-05-23T11:47:42.420Z,3.05
2018-05-23T11:50:11.625Z,4.93
2018-05-23T11:52:40.861Z,12.77
2018-05-23T11:55:10.357Z,7.03
2018-05-23T11:57:39.920Z,5.93
2018-05-23T12:00:09.455Z,12.25
2018-05-23T12:02:38.940Z,2.22
2018-05-23T12:05:08.450Z,6.80
2018-05-23T12:07:37.964Z,11.07
2018-05-23T12:10:07.490Z,3.35
2018-05-23T12:12:36.976Z,5.65
2018-05-23T12:15:06.615Z,8.90
2018-05-23T12:17:35.835Z,8.10
2018-05-23T12:20:05.396Z,5.10
2018-05-23T12:22:35.013Z,6.53
2018-05-23T12:25:04.524Z,7.55
2018-05-23T12:27:33.999Z,8.50
2018-05-23T12:30:03.436Z,7.65
2018-05-23T12:32:32.973Z,7.95
2018-05-23T12:35:02.211Z,7.55
2018-05-23T12:37:31.761Z,3.15
2018-05-23T12:40:01.296Z,4.82
2018-05-23T12:42:30.803Z,4.93
2018-05-23T12:45:00.387Z,3.47
2018-05-23T12:47:29.896Z,3.83
2018-05-23T12:49:59.533Z,4.75
2018-05-23T12:52:29.120Z,4.97
2018-05-23T12:54:58.654Z,7.18
2018-05-23T12:57:28.165Z,7.03
2018-05-23T12:59:57.632Z,5.30
2018-05-23T13:02:27.066Z,7.18
2018-05-23T13:04:56.568Z,5.90
2018-05-23T13:07:26.199Z,5.12
2018-05-23T13:09:55.683Z,7.95
2018-05-23T13:12:25.249Z,2.95
2018-05-23T13:14:54.709Z,7.03
2018-05-23T13:17:23.941Z,3.87
2018-05-23T13:19:54.376Z,3.45
2018-05-23T13:22:23.595Z,4.40
2018-05-23T13:24:52.944Z,6.57
2018-05-23T13:27:22.416Z,4.57
2018-05-23T13:29:51.768Z,5.75
2018-05-23T13:32:22.089Z,4.62
2018-05-23T13:34:52.156Z,4.68
2018-05-23T13:37:21.386Z,3.03
2018-05-23T13:39:50.920Z,3.47
2018-05-23T13:42:20.431Z,8.80
2018-05-23T13:44:49.947Z,22.90
2018-05-23T13:47:19.376Z,4.50
2018-05-23T13:49:48.912Z,4.20
2018-05-23T13:52:18.471Z,5.45
2018-05-23T13:54:48.128Z,5.45
2018-05-23T13:57:17.704Z,5.30
2018-05-23T13:59:47.218Z,3.40
2018-05-23T14:02:16.708Z,6.20
2018-05-23T14:04:45.941Z,8.88
2018-05-23T14:07:15.520Z,6.95
2018-05-23T14:09:45.113Z,4.45
2018-05-23T14:12:14.665Z,12.68
2018-05-23T14:14:44.894Z,8.27
2018-05-23T14:17:14.579Z,7.35
2018-05-23T14:19:43.966Z,5.20
2018-05-23T14:22:13.518Z,5.75
2018-05-23T14:24:43.044Z,3.05
2018-05-23T14:27:12.537Z,3.92
2018-05-23T14:29:41.842Z,2.60
2018-05-23T14:32:11.060Z,3.95
2018-05-23T14:34:41.168Z,5.37
2018-05-23T14:37:10.697Z,4.70
2018-05-23T14:39:40.164Z,2.83
2018-05-23T14:42:09.738Z,3.95
2018-05-23T14:44:39.309Z,5.12
2018-05-23T14:47:08.793Z,1.83
2018-05-23T14:49:38.145Z,3.72
2018-05-23T14:52:07.911Z,3.05
2018-05-23T14:54:37.394Z,2.10
2018-05-23T14:57:06.839Z,4.05
2018-05-23T14:59:36.361Z,2.87
2018-05-23T15:02:07.134Z,2.92
2018-05-23T15:51:54.092Z,2.97
2018-05-23T15:54:23.296Z,5.10
2018-05-23T15:56:52.835Z,3.97
2018-05-23T15:59:22.843Z,4.95
2018-05-23T16:01:52.055Z,7.65
2018-05-23T16:04:21.349Z,3.30
2018-05-23T16:06:51.036Z,4.12
2018-05-23T16:09:20.539Z,9.20
2018-05-23T16:11:50.077Z,4.18
2018-05-23T16:14:20.406Z,3.28
2018-05-23T16:16:49.757Z,4.35
2018-05-23T16:19:19.326Z,2.15
2018-05-23T16:21:48.828Z,3.75
2018-05-23T16:24:18.337Z,9.05
2018-05-23T16:26:47.540Z,4.65
2018-05-23T16:29:17.051Z,4.97
2018-05-23T16:31:46.564Z,2.05
2018-05-23T16:34:16.160Z,2.35
2018-05-23T16:36:45.757Z,4.90
2018-05-23T16:39:16.008Z,2.50
2018-05-23T16:41:46.437Z,2.20
2018-05-23T16:44:16.180Z,2.25
2018-05-23T16:46:45.683Z,3.17
2018-05-23T16:49:14.880Z,6.20
2018-05-23T16:51:44.449Z,2.62
2018-05-23T16:54:13.652Z,3.33
2018-05-23T16:56:43.300Z,2.37
2018-05-23T16:59:12.538Z,2.62
2018-05-23T17:01:42.037Z,3.50
2018-05-23T17:04:11.303Z,6.15
2018-05-23T17:06:40.892Z,2.42
2018-05-23T17:09:10.129Z,3.75
2018-05-23T17:11:39.373Z,2.15
2018-05-23T17:14:08.876Z,1.90
2018-05-23T17:16:38.437Z,5.72
2018-05-23T17:19:08.034Z,2.50
2018-05-23T17:21:38.277Z,4.85
2018-05-23T17:24:07.484Z,2.05
2018-05-23T17:26:37.169Z,2.65
2018-05-23T17:29:07.237Z,1.70
2018-05-23T17:31:36.904Z,4.20
2018-05-23T17:34:06.416Z,2.50
2018-05-23T17:36:35.884Z,2.97
2018-05-23T17:39:05.325Z,1.40
2018-05-23T17:41:34.656Z,2.70
2018-05-23T17:44:03.907Z,1.67
2018-05-23T17:46:33.366Z,3.20
2018-05-23T17:49:02.650Z,2.40
2018-05-23T17:51:32.158Z,4.95
2018-05-23T17:54:02.304Z,4.40
2018-05-23T17:56:38.296Z,2.75
2018-05-23T17:59:08.484Z,3.33
2018-05-23T18:01:40.174Z,6.30
2018-05-23T18:04:09.664Z,1.80
2018-05-23T18:06:39.341Z,2.92
2018-05-23T18:09:08.784Z,3.07
2018-05-23T18:11:39.588Z,3.07
2018-05-23T18:14:09.204Z,2.67
2018-05-23T18:16:38.735Z,3.30
2018-05-23T18:19:08.240Z,1.77
2018-05-23T18:21:37.749Z,2.70
2018-05-23T18:24:07.241Z,5.30
2018-05-23T18:26:36.461Z,2.13
2018-05-23T18:29:06.903Z,1.80
2018-05-23T18:31:36.116Z,1.87
2018-05-23T18:34:05.613Z,2.17
2018-05-23T18:36:34.856Z,1.67
2018-05-23T18:39:05.010Z,4.47
2018-05-23T18:41:34.516Z,2.60
2018-05-23T18:44:04.036Z,1.30
2018-05-23T18:46:33.418Z,3.03
2018-05-23T18:49:02.966Z,1.53
2018-05-23T18:51:32.452Z,1.90
2018-05-23T18:54:02.170Z,2.70
2018-05-23T18:56:31.497Z,1.77
2018-05-23T18:59:00.976Z,1.40
2018-05-23T19:01:30.500Z,2.73
2018-05-23T19:04:00.065Z,1.37
2018-05-23T19:06:29.277Z,1.80
2018-05-23T19:08:58.920Z,3.20
2018-05-23T19:11:28.425Z,2.43
2018-05-23T19:13:57.653Z,0.93
2018-05-23T19:16:27.827Z,1.33
2018-05-23T19:18:57.380Z,1.67
2018-05-23T19:21:27.535Z,1.00
2018-05-23T19:23:57.030Z,1.83
2018-05-23T19:26:26.623Z,1.60
2018-05-23T19:28:56.219Z,3.70
2018-05-23T19:31:25.424Z,1.50
2018-05-23T19:33:54.928Z,1.07
2018-05-23T19:36:24.716Z,2.70
2018-05-23T19:38:54.276Z,1.23
2018-05-23T19:41:23.768Z,1.80
2018-05-23T19:43:53.245Z,3.43
2018-05-23T19:46:23.297Z,1.63
2018-05-23T19:48:52.716Z,1.20
2018-05-23T19:51:22.746Z,1.33
2018-05-23T19:53:52.247Z,2.20
2018-05-23T19:56:22.502Z,1.57
2018-05-23T19:58:51.706Z,0.87
2018-05-23T20:01:21.264Z,0.90
2018-05-23T20:03:50.794Z,2.43
2018-05-23T20:06:20.304Z,0.80
2018-05-23T20:08:50.295Z,1.20
2018-05-23T20:11:19.815Z,0.70
2018-05-23T20:13:49.324Z,1.07
2018-05-23T20:16:18.647Z,1.27
2018-05-23T20:18:48.157Z,2.07
2018-05-23T20:21:17.640Z,1.80
2018-05-23T20:23:47.175Z,0.80
2018-05-23T20:26:16.496Z,1.37
2018-05-23T20:28:45.966Z,1.77
2018-05-23T20:31:15.497Z,2.60
2018-05-23T20:33:45.007Z,1.37
2018-05-23T20:36:14.240Z,1.97
2018-05-23T20:38:43.798Z,1.50
2018-05-23T20:41:13.342Z,2.13
2018-05-23T20:43:42.641Z,1.57
2018-05-23T20:46:12.476Z,1.43
2018-05-23T20:48:43.163Z,2.20
2018-05-23T20:51:14.389Z,1.07
2018-05-23T20:53:44.972Z,0.60
2018-05-23T20:56:14.583Z,1.73
2018-05-23T20:58:44.368Z,0.70
2018-05-23T21:01:13.984Z,1.83
2018-05-23T21:03:43.214Z,2.10
2018-05-23T21:06:12.638Z,1.20
2018-05-23T21:08:42.731Z,0.60
2018-05-23T21:11:12.143Z,2.07
2018-05-23T21:13:41.587Z,1.13
2018-05-23T21:16:10.950Z,1.57
2018-05-23T21:18:40.154Z,0.60
2018-05-23T21:21:09.735Z,3.33
2018-05-23T21:23:38.994Z,1.00
2018-05-23T21:26:08.475Z,1.47
2018-05-23T21:28:40.725Z,0.67
2018-05-23T21:31:10.252Z,0.50
2018-05-23T21:33:39.893Z,2.33
2018-05-23T21:36:09.378Z,0.97
2018-05-23T21:38:38.867Z,0.50
2018-05-23T21:41:08.453Z,1.30
2018-05-23T21:43:38.077Z,0.60
2018-05-23T21:46:07.434Z,2.60
2018-05-23T21:48:37.542Z,1.63
2018-05-23T21:51:07.150Z,3.87
2018-05-23T21:53:36.557Z,0.90
2018-05-23T21:56:06.503Z,1.40
2018-05-23T21:58:36.523Z,0.70
2018-05-23T22:01:06.073Z,0.90
2018-05-23T22:03:35.615Z,0.60
2018-05-23T22:06:05.082Z,1.07
2018-05-23T22:08:34.601Z,2.37
2018-05-23T22:11:04.041Z,0.70
2018-05-23T22:13:33.659Z,1.37
2018-05-23T22:16:03.328Z,2.00
2018-05-23T22:18:32.804Z,1.83
2018-05-23T22:21:02.361Z,0.50
2018-05-23T22:23:32.325Z,1.97
2018-05-23T22:26:01.897Z,1.80
2018-05-23T22:28:32.241Z,0.50
2018-05-23T22:31:01.648Z,2.03
2018-05-23T22:33:31.228Z,1.20
2018-05-23T22:36:00.552Z,1.43
2018-05-23T22:38:29.970Z,0.70
2018-05-23T22:41:00.362Z,2.77
2018-05-23T22:43:29.693Z,0.60
2018-05-23T22:45:59.184Z,2.27
2018-05-23T22:48:32.103Z,1.37
2018-05-23T22:51:01.678Z,1.53
2018-05-23T22:53:32.140Z,1.23
2018-05-23T22:56:01.625Z,0.50
2018-05-23T22:58:32.054Z,1.00
2018-05-23T23:01:02.414Z,1.13
2018-05-23T23:03:31.821Z,3.27
2018-05-23T23:06:02.125Z,1.20
2018-05-23T23:08:33.007Z,2.30
2018-05-23T23:11:02.565Z,1.30
2018-05-23T23:13:32.625Z,3.17
2018-05-23T23:16:02.198Z,3.30
2018-05-23T23:18:31.736Z,3.53
2018-05-23T23:21:01.227Z,1.47
2018-05-23T23:23:30.818Z,4.23
2018-05-23T23:26:00.025Z,6.00
2018-05-23T23:28:30.001Z,1.77
2018-05-23T23:31:00.827Z,3.97
2018-05-23T23:33:30.300Z,3.60
2018-05-23T23:35:59.537Z,2.90
2018-05-23T23:38:28.950Z,1.83
2018-05-23T23:41:00.285Z,5.67
2018-05-23T23:43:29.761Z,1.83
2018-05-23T23:45:59.493Z,4.33
2018-05-23T23:48:29.119Z,3.07
2018-05-23T23:50:58.740Z,3.53
2018-05-23T23:53:28.311Z,2.57
2018-05-23T23:55:57.873Z,2.50
2018-05-23T23:58:27.364Z,1.27
